createdAt,value
2022-08-25T00:02:03.205Z,100.00
2022-08-25T00:04:33.740Z,100.00
2022-08-25T00:07:04.541Z,100.00
2022-08-25T00:09:34.024Z,100.00
2022-08-25T00:12:01.577Z,100.00
2022-08-25T00:14:33.704Z,100.00
2022-08-25T00:17:01.729Z,100.00
2022-08-25T00:19:32.607Z,100.00
2022-08-25T00:22:01.044Z,100.00
2022-08-25T00:24:29.679Z,100.00
2022-08-25T00:26:58.672Z,100.00
2022-08-25T00:29:27.914Z,100.00
2022-08-25T00:31:56.085Z,100.00
2022-08-25T00:34:28.601Z,100.00
2022-08-25T00:36:56.118Z,100.00
2022-08-25T00:39:24.427Z,100.00
2022-08-25T00:41:54.198Z,100.00
2022-08-25T00:44:21.689Z,100.00
2022-08-25T00:46:53.905Z,100.00
2022-08-25T00:49:44.894Z,100.00
2022-08-25T00:52:22.339Z,100.00
2022-08-25T00:55:05.897Z,100.00
2022-08-25T00:57:46.636Z,100.00
2022-08-25T01:00:19.594Z,100.00
2022-08-25T01:02:47.286Z,100.00
2022-08-25T01:05:15.018Z,100.00
2022-08-25T01:07:44.640Z,100.00
2022-08-25T01:10:13.666Z,100.00
2022-08-25T01:12:41.702Z,100.00
2022-08-25T01:15:11.113Z,100.00
2022-08-25T01:17:53.887Z,100.00
2022-08-25T01:20:23.931Z,100.00
2022-08-25T01:22:56.816Z,100.00
2022-08-25T01:25:42.724Z,100.00
2022-08-25T01:28:10.429Z,100.00
2022-08-25T01:30:38.427Z,100.00
2022-08-25T01:33:07.646Z,100.00
2022-08-25T01:35:35.979Z,100.00
2022-08-25T01:38:05.396Z,100.00
2022-08-25T01:40:32.860Z,100.00
2022-08-25T01:43:14.997Z,100.00
2022-08-25T01:45:46.340Z,100.00
2022-08-25T01:48:15.002Z,100.00
2022-08-25T01:50:44.011Z,100.00
2022-08-25T01:53:28.439Z,100.00
2022-08-25T01:56:02.219Z,100.00
2022-08-25T01:58:34.731Z,100.00
2022-08-25T02:01:05.878Z,100.00
2022-08-25T02:03:33.292Z,100.00
2022-08-25T02:06:01.371Z,100.00
2022-08-25T02:08:31.855Z,100.00
2022-08-25T02:10:59.084Z,100.00
2022-08-25T02:13:26.809Z,100.00
2022-08-25T02:16:00.909Z,100.00
2022-08-25T02:18:28.370Z,100.00
2022-08-25T02:20:55.615Z,100.00
2022-08-25T02:23:22.935Z,100.00
2022-08-25T02:25:49.967Z,100.00
2022-08-25T02:28:17.386Z,100.00
2022-08-25T02:30:45.127Z,100.00
2022-08-25T02:33:12.469Z,100.00
2022-08-25T02:35:39.905Z,100.00
2022-08-25T02:38:07.930Z,100.00
2022-08-25T02:40:36.037Z,100.00
2022-08-25T02:43:03.930Z,100.00
2022-08-25T02:45:31.071Z,100.00
2022-08-25T02:47:58.222Z,100.00
2022-08-25T02:50:26.273Z,100.00
2022-08-25T02:52:53.434Z,100.00
2022-08-25T02:55:21.514Z,100.00
2022-08-25T02:57:48.892Z,100.00
2022-08-25T03:00:17.433Z,100.00
2022-08-25T03:02:47.336Z,100.00
2022-08-25T03:05:16.096Z,100.00
2022-08-25T03:07:43.654Z,100.00
2022-08-25T03:10:16.581Z,100.00
2022-08-25T03:12:43.836Z,100.00
2022-08-25T03:15:13.220Z,100.00
2022-08-25T03:17:40.935Z,100.00
2022-08-25T03:20:13.182Z,100.00
2022-08-25T03:22:40.519Z,100.00
2022-08-25T03:25:28.312Z,100.00
2022-08-25T03:27:56.024Z,100.00
2022-08-25T03:30:23.425Z,100.00
2022-08-25T03:32:50.839Z,100.00
2022-08-25T03:35:18.721Z,100.00
2022-08-25T03:37:45.981Z,100.00
2022-08-25T03:40:16.486Z,100.00
2022-08-25T03:42:45.972Z,100.00
2022-08-25T03:45:16.544Z,100.00
2022-08-25T03:47:47.532Z,100.00
2022-08-25T03:50:16.701Z,100.00
2022-08-25T03:52:44.380Z,100.00
2022-08-25T03:55:14.771Z,100.00
2022-08-25T03:57:42.375Z,100.00
2022-08-25T04:00:12.313Z,100.00
2022-08-25T04:02:41.007Z,100.00
2022-08-25T04:05:10.224Z,100.00
2022-08-25T04:07:38.541Z,100.00
2022-08-25T04:10:08.698Z,100.00
2022-08-25T04:12:37.925Z,100.00
2022-08-25T04:15:07.613Z,100.00
2022-08-25T04:17:38.050Z,100.00
2022-08-25T04:20:08.312Z,100.00
2022-08-25T04:22:36.838Z,100.00
2022-08-25T04:25:07.134Z,100.00
2022-08-25T04:27:34.417Z,100.00
2022-08-25T04:30:01.892Z,100.00
2022-08-25T04:32:31.519Z,100.00
2022-08-25T04:34:59.451Z,100.00
2022-08-25T04:37:26.847Z,100.00
2022-08-25T04:39:54.282Z,100.00
2022-08-25T04:42:21.975Z,100.00
2022-08-25T04:44:50.185Z,100.00
2022-08-25T04:47:17.791Z,100.00
2022-08-25T04:49:45.319Z,100.00
2022-08-25T04:52:13.180Z,100.00
2022-08-25T04:54:43.014Z,100.00
2022-08-25T04:57:10.572Z,100.00
2022-08-25T04:59:37.862Z,100.00
2022-08-25T05:02:06.875Z,100.00
2022-08-25T05:04:36.212Z,100.00
2022-08-25T05:07:04.534Z,100.00
2022-08-25T05:09:33.030Z,100.00
2022-08-25T05:12:02.906Z,100.00
2022-08-25T05:14:32.090Z,100.00
2022-08-25T05:17:03.160Z,100.00
2022-08-25T05:19:31.419Z,100.00
2022-08-25T05:21:58.601Z,100.00
2022-08-25T05:24:26.858Z,100.00
2022-08-25T05:26:54.316Z,98.46
2022-08-25T05:29:21.823Z,97.37
2022-08-25T05:31:50.846Z,94.62
2022-08-25T05:34:19.662Z,94.53
2022-08-25T05:36:47.679Z,92.07
2022-08-25T05:39:15.102Z,89.92
2022-08-25T05:41:42.490Z,89.82
2022-08-25T05:44:09.884Z,89.92
2022-08-25T05:46:37.339Z,88.29
2022-08-25T05:49:04.694Z,86.10
2022-08-25T05:51:31.893Z,85.42
2022-08-25T05:53:59.412Z,82.91
2022-08-25T05:56:26.689Z,83.11
2022-08-25T05:58:54.325Z,80.81
2022-08-25T06:01:45.097Z,80.70
2022-08-25T06:04:16.438Z,80.68
2022-08-25T06:06:44.046Z,79.98
2022-08-25T06:09:11.291Z,79.76
2022-08-25T06:11:40.434Z,77.58
2022-08-25T06:14:09.628Z,77.13
2022-08-25T06:16:39.114Z,75.94
2022-08-25T06:19:08.658Z,75.78
2022-08-25T06:21:37.406Z,74.79
2022-08-25T06:24:05.392Z,74.59
2022-08-25T06:26:33.113Z,74.64
2022-08-25T06:29:00.359Z,76.21
2022-08-25T06:31:27.776Z,75.39
2022-08-25T06:33:55.434Z,75.85
2022-08-25T06:36:22.478Z,75.72
2022-08-25T06:38:49.883Z,75.65
2022-08-25T06:41:20.810Z,74.90
2022-08-25T06:43:51.792Z,75.11
2022-08-25T06:46:34.684Z,73.08
2022-08-25T06:49:06.278Z,72.09
2022-08-25T06:51:37.685Z,72.43
2022-08-25T06:54:06.666Z,71.88
2022-08-25T06:56:34.444Z,71.24
2022-08-25T06:59:03.491Z,70.51
2022-08-25T07:01:32.181Z,70.48
2022-08-25T07:04:01.728Z,70.37
2022-08-25T07:06:32.491Z,70.58
2022-08-25T07:09:00.226Z,70.44
2022-08-25T07:11:28.377Z,69.83
2022-08-25T07:13:55.705Z,69.50
2022-08-25T07:16:24.414Z,69.49
2022-08-25T07:19:00.201Z,69.51
2022-08-25T07:21:33.117Z,68.81
2022-08-25T07:24:01.797Z,69.30
2022-08-25T07:26:39.340Z,69.54
2022-08-25T07:29:16.107Z,69.08
2022-08-25T07:31:45.263Z,68.21
2022-08-25T07:34:34.723Z,68.00
2022-08-25T07:37:06.239Z,68.19
2022-08-25T07:39:34.884Z,68.41
2022-08-25T07:42:02.743Z,67.65
2022-08-25T07:44:29.985Z,67.34
2022-08-25T07:46:57.860Z,66.60
2022-08-25T07:49:26.620Z,65.83
2022-08-25T07:52:06.452Z,66.97
2022-08-25T07:54:37.969Z,67.81
2022-08-25T07:57:10.355Z,68.52
2022-08-25T07:59:42.567Z,67.93
2022-08-25T08:02:18.050Z,68.02
2022-08-25T08:04:49.913Z,65.72
2022-08-25T08:07:36.956Z,66.22
2022-08-25T08:13:02.360Z,65.81
2022-08-25T08:15:30.563Z,66.97
2022-08-25T08:17:59.769Z,66.42
2022-08-25T08:20:29.107Z,66.99
2022-08-25T08:22:56.740Z,65.98
2022-08-25T08:25:24.298Z,66.43
2022-08-25T08:27:55.418Z,65.60
2022-08-25T08:30:26.322Z,66.18
2022-08-25T08:33:11.793Z,65.74
2022-08-25T08:35:43.433Z,66.41
2022-08-25T08:38:17.261Z,65.89
2022-08-25T08:41:28.236Z,65.15
2022-08-25T08:44:22.443Z,66.48
2022-08-25T08:46:55.048Z,64.63
2022-08-25T08:49:38.041Z,64.90
2022-08-25T08:52:09.302Z,64.30
2022-08-25T08:54:42.587Z,63.93
2022-08-25T08:57:16.730Z,63.17
2022-08-25T09:00:09.520Z,62.93
2022-08-25T09:03:10.897Z,63.07
2022-08-25T09:05:47.642Z,62.87
2022-08-25T09:08:20.262Z,63.44
2022-08-25T09:11:20.006Z,61.75
2022-08-25T09:13:53.497Z,62.04
2022-08-25T09:16:57.275Z,61.75
2022-08-25T09:19:43.077Z,62.12
2022-08-25T09:22:35.520Z,61.02
2022-08-25T09:25:12.712Z,61.79
2022-08-25T09:27:58.993Z,62.06
2022-08-25T09:30:33.111Z,61.09
2022-08-25T09:33:05.206Z,61.40
2022-08-25T09:35:37.512Z,63.04
2022-08-25T09:38:09.568Z,61.40
2022-08-25T09:40:40.814Z,61.65
2022-08-25T09:43:35.428Z,60.51
2022-08-25T09:46:05.778Z,62.05
2022-08-25T09:48:43.086Z,61.28
2022-08-25T09:51:38.344Z,60.49
2022-08-25T09:54:13.929Z,60.29
2022-08-25T09:56:53.788Z,60.51
2022-08-25T09:59:35.932Z,59.89
2022-08-25T10:02:23.987Z,60.37
2022-08-25T10:04:52.461Z,60.09
2022-08-25T10:07:30.512Z,58.47
2022-08-25T10:10:07.838Z,58.44
2022-08-25T10:12:42.599Z,58.99
2022-08-25T10:15:30.866Z,59.20
2022-08-25T10:18:26.609Z,57.98
2022-08-25T10:21:13.419Z,58.16
2022-08-25T10:23:46.648Z,58.55
2022-08-25T10:26:27.984Z,57.04
2022-08-25T10:29:05.022Z,57.66
2022-08-25T10:31:41.490Z,58.20
2022-08-25T10:34:54.820Z,55.68
2022-08-25T10:37:47.506Z,55.79
2022-08-25T10:40:25.081Z,54.96
2022-08-25T10:43:08.580Z,54.65
2022-08-25T10:45:48.021Z,54.16
2022-08-25T10:48:30.843Z,53.48
2022-08-25T10:51:24.896Z,53.12
2022-08-25T10:54:13.172Z,54.43
2022-08-25T10:57:00.915Z,52.09
2022-08-25T10:59:53.072Z,51.00
2022-08-25T11:02:34.406Z,51.17
2022-08-25T11:05:43.063Z,50.63
2022-08-25T11:08:31.104Z,49.66
2022-08-25T11:11:24.458Z,47.96
2022-08-25T11:14:09.222Z,49.24
2022-08-25T11:16:45.446Z,48.51
2022-08-25T11:19:33.794Z,47.82
2022-08-25T11:22:38.532Z,47.75
2022-08-25T11:25:30.485Z,46.38
2022-08-25T11:28:16.723Z,46.73
2022-08-25T11:30:45.184Z,46.33
2022-08-25T11:33:20.095Z,46.75
2022-08-25T11:35:54.582Z,47.08
2022-08-25T11:38:57.654Z,46.72
2022-08-25T11:42:12.562Z,46.85
2022-08-25T11:44:45.521Z,45.94
2022-08-25T11:47:48.029Z,45.74
2022-08-25T11:50:35.350Z,43.63
2022-08-25T11:53:11.787Z,43.82
2022-08-25T11:55:43.797Z,42.88
2022-08-25T11:58:24.157Z,42.99
2022-08-25T12:00:54.286Z,41.60
2022-08-25T12:03:36.488Z,41.89
2022-08-25T12:06:28.022Z,41.27
2022-08-25T12:09:01.675Z,41.25
2022-08-25T12:11:52.401Z,40.65
2022-08-25T12:14:23.109Z,41.42
2022-08-25T12:16:56.738Z,40.32
2022-08-25T12:19:30.456Z,40.85
2022-08-25T12:22:19.375Z,40.66
2022-08-25T12:25:03.541Z,40.66
2022-08-25T12:27:38.336Z,40.33
2022-08-25T12:30:26.300Z,39.59
2022-08-25T12:33:16.885Z,39.78
2022-08-25T12:36:01.106Z,38.61
2022-08-25T12:38:28.455Z,38.23
2022-08-25T12:41:10.826Z,39.07
2022-08-25T12:43:46.243Z,38.71
2022-08-25T12:46:19.943Z,39.01
2022-08-25T12:49:00.845Z,38.38
2022-08-25T12:51:49.867Z,38.10
2022-08-25T12:54:55.554Z,38.12
2022-08-25T12:57:42.097Z,38.36
2022-08-25T13:00:42.585Z,37.97
2022-08-25T13:03:31.330Z,36.67
2022-08-25T13:06:26.868Z,35.74
2022-08-25T13:09:22.390Z,36.20
2022-08-25T13:12:10.202Z,36.60
2022-08-25T13:14:44.161Z,35.77
2022-08-25T13:17:12.650Z,34.97
2022-08-25T13:19:39.857Z,35.13
2022-08-25T13:22:16.097Z,35.03
2022-08-25T13:24:47.479Z,35.11
2022-08-25T13:27:29.840Z,35.48
2022-08-25T13:30:03.928Z,35.45
2022-08-25T13:32:39.700Z,34.96
2022-08-25T13:35:21.470Z,34.70
2022-08-25T13:37:50.298Z,34.96
2022-08-25T13:40:25.938Z,34.37
2022-08-25T13:43:01.092Z,34.66
2022-08-25T13:45:41.116Z,35.26
2022-08-25T13:48:22.509Z,34.88
2022-08-25T13:50:52.681Z,35.48
2022-08-25T13:53:30.495Z,34.50
2022-08-25T13:56:02.384Z,34.08
2022-08-25T13:58:39.018Z,35.05
2022-08-25T14:01:23.262Z,35.52
2022-08-25T14:04:33.286Z,35.23
2022-08-25T14:07:25.924Z,35.15
2022-08-25T14:10:05.072Z,35.36
2022-08-25T14:12:44.800Z,35.62
2022-08-25T14:15:29.659Z,35.63
2022-08-25T14:18:01.683Z,35.55
2022-08-25T14:20:32.247Z,34.87
2022-08-25T14:23:05.746Z,36.15
2022-08-25T14:25:40.450Z,36.20
2022-08-25T14:28:17.011Z,35.76
2022-08-25T14:30:52.268Z,36.50
2022-08-25T14:33:23.870Z,36.57
2022-08-25T14:35:54.276Z,36.66
2022-08-25T14:38:22.740Z,36.22
2022-08-25T14:40:51.270Z,35.80
2022-08-25T14:43:18.550Z,36.35
2022-08-25T14:45:52.003Z,36.53
2022-08-25T14:48:42.321Z,36.74
2022-08-25T14:51:12.715Z,36.05
2022-08-25T14:53:41.041Z,36.46
2022-08-25T14:56:10.268Z,36.64
2022-08-25T14:58:51.238Z,36.24
2022-08-25T15:01:29.221Z,36.27
2022-08-25T15:04:19.679Z,35.76
2022-08-25T15:06:51.613Z,35.18
2022-08-25T15:09:21.171Z,36.27
2022-08-25T15:11:51.821Z,35.84
2022-08-25T15:14:28.558Z,36.08
2022-08-25T15:17:02.029Z,35.99
2022-08-25T15:19:29.961Z,35.55
2022-08-25T15:21:57.951Z,35.45
2022-08-25T15:24:28.385Z,35.17
2022-08-25T15:27:01.202Z,34.96
2022-08-25T15:29:31.208Z,35.42
2022-08-25T15:32:00.618Z,35.32
2022-08-25T15:34:28.994Z,36.24
2022-08-25T15:37:07.004Z,36.18
2022-08-25T15:39:35.207Z,36.79
2022-08-25T15:42:03.182Z,35.25
2022-08-25T15:44:31.726Z,35.28
2022-08-25T15:47:00.576Z,35.41
2022-08-25T15:49:34.164Z,35.44
2022-08-25T15:52:02.081Z,35.71
2022-08-25T15:54:30.377Z,36.26
2022-08-25T15:56:58.014Z,35.73
2022-08-25T15:59:27.883Z,35.83
2022-08-25T16:01:55.545Z,35.44
2022-08-25T16:04:29.165Z,35.89
2022-08-25T16:06:57.275Z,35.66
2022-08-25T16:09:26.138Z,35.42
2022-08-25T16:11:56.619Z,35.29
2022-08-25T16:14:26.316Z,35.68
2022-08-25T16:16:58.011Z,35.22
2022-08-25T16:19:29.284Z,35.49
2022-08-25T16:21:57.607Z,35.78
2022-08-25T16:24:25.653Z,35.02
2022-08-25T16:26:56.043Z,34.91
2022-08-25T16:29:24.049Z,34.63
2022-08-25T16:31:53.238Z,35.02
2022-08-25T16:34:24.434Z,34.89
2022-08-25T16:36:53.549Z,34.94
2022-08-25T16:39:22.026Z,34.69
2022-08-25T16:41:52.665Z,35.13
2022-08-25T16:44:22.636Z,36.43
2022-08-25T16:46:54.276Z,35.31
2022-08-25T16:49:24.179Z,35.37
2022-08-25T16:51:56.954Z,37.13
2022-08-25T16:54:45.279Z,36.26
2022-08-25T16:57:13.417Z,36.19
2022-08-25T16:59:42.558Z,37.42
2022-08-25T17:02:17.690Z,38.33
2022-08-25T17:04:48.770Z,40.51
2022-08-25T17:07:16.441Z,40.68
2022-08-25T17:09:51.506Z,40.13
2022-08-25T17:12:20.611Z,40.89
2022-08-25T17:14:47.818Z,40.78
2022-08-25T17:17:15.105Z,41.37
2022-08-25T17:19:45.847Z,41.56
2022-08-25T17:22:15.850Z,41.91
2022-08-25T17:24:45.248Z,42.03
2022-08-25T17:27:26.777Z,42.32
2022-08-25T17:29:54.738Z,42.76
2022-08-25T17:32:28.897Z,42.89
2022-08-25T17:34:59.447Z,42.73
2022-08-25T17:37:27.047Z,43.33
2022-08-25T17:39:56.795Z,43.22
2022-08-25T17:42:31.855Z,44.09
2022-08-25T17:44:58.993Z,44.62
2022-08-25T17:47:27.720Z,44.94
2022-08-25T17:49:54.930Z,44.53
2022-08-25T17:52:25.668Z,44.80
2022-08-25T17:54:53.235Z,44.50
2022-08-25T17:57:21.358Z,44.89
2022-08-25T17:59:48.666Z,45.36
2022-08-25T18:02:15.803Z,45.89
2022-08-25T18:04:43.509Z,46.80
2022-08-25T18:07:10.691Z,46.65
2022-08-25T18:09:38.114Z,47.49
2022-08-25T18:12:05.736Z,47.16
2022-08-25T18:14:33.354Z,46.62
2022-08-25T18:17:03.757Z,47.58
2022-08-25T18:19:32.356Z,47.99
2022-08-25T18:22:04.340Z,47.76
2022-08-25T18:24:32.590Z,48.29
2022-08-25T18:26:59.656Z,48.59
2022-08-25T18:29:27.348Z,49.29
2022-08-25T18:31:59.728Z,49.69
2022-08-25T18:34:27.815Z,50.13
2022-08-25T18:37:17.871Z,50.32
2022-08-25T18:40:04.047Z,49.92
2022-08-25T18:42:35.939Z,49.48
2022-08-25T18:45:06.162Z,49.33
2022-08-25T18:47:33.983Z,49.57
2022-08-25T18:50:04.464Z,50.56
2022-08-25T18:52:32.187Z,51.05
2022-08-25T18:55:00.380Z,51.85
2022-08-25T18:57:28.870Z,52.44
2022-08-25T18:59:56.129Z,52.64
2022-08-25T19:02:23.431Z,53.27
2022-08-25T19:04:52.785Z,53.37
2022-08-25T19:07:20.207Z,54.04
2022-08-25T19:09:47.480Z,52.16
2022-08-25T19:12:22.629Z,53.32
2022-08-25T19:14:50.661Z,54.03
2022-08-25T19:17:17.833Z,53.92
2022-08-25T19:19:45.186Z,53.97
2022-08-25T19:22:21.342Z,53.51
2022-08-25T19:24:59.961Z,53.39
2022-08-25T19:27:27.288Z,53.24
2022-08-25T19:29:54.433Z,52.85
2022-08-25T19:32:21.756Z,52.91
2022-08-25T19:34:51.535Z,53.79
2022-08-25T19:37:19.242Z,53.72
2022-08-25T19:39:52.957Z,53.39
2022-08-25T19:42:35.337Z,53.68
2022-08-25T19:45:08.204Z,53.53
2022-08-25T19:47:35.461Z,53.63
2022-08-25T19:50:02.827Z,54.31
2022-08-25T19:52:31.142Z,54.36
2022-08-25T19:55:00.119Z,55.49
2022-08-25T19:57:42.243Z,55.58
2022-08-25T20:00:15.746Z,55.40
2022-08-25T20:02:44.492Z,55.92
2022-08-25T20:05:13.150Z,55.89
2022-08-25T20:07:41.444Z,56.04
2022-08-25T20:10:14.265Z,56.78
2022-08-25T20:12:42.963Z,58.09
2022-08-25T20:15:11.978Z,58.72
2022-08-25T20:17:41.608Z,59.77
2022-08-25T20:20:12.062Z,60.40
2022-08-25T20:22:40.060Z,61.23
2022-08-25T20:25:15.271Z,61.86
2022-08-25T20:27:51.403Z,62.37
2022-08-25T20:30:25.249Z,62.44
2022-08-25T20:32:54.844Z,62.75
2022-08-25T20:35:26.683Z,63.42
2022-08-25T20:37:56.254Z,63.74
2022-08-25T20:40:27.270Z,62.96
2022-08-25T20:42:55.848Z,62.68
2022-08-25T20:45:23.496Z,63.29
2022-08-25T20:47:51.507Z,65.08
2022-08-25T20:50:19.952Z,65.19
2022-08-25T20:52:48.515Z,65.79
2022-08-25T20:55:18.914Z,66.22
2022-08-25T20:57:46.882Z,66.92
2022-08-25T21:00:15.994Z,67.47
2022-08-25T21:02:46.348Z,67.14
2022-08-25T21:05:14.401Z,67.49
2022-08-25T21:07:41.969Z,67.39
2022-08-25T21:10:14.515Z,66.90
2022-08-25T21:12:42.920Z,67.28
2022-08-25T21:15:11.272Z,67.79
2022-08-25T21:17:39.139Z,66.57
2022-08-25T21:20:08.346Z,65.64
2022-08-25T21:22:38.075Z,64.63
2022-08-25T21:25:06.895Z,63.23
2022-08-25T21:27:34.307Z,62.17
2022-08-25T21:30:01.589Z,59.20
2022-08-25T21:32:31.225Z,57.05
2022-08-25T21:34:58.504Z,55.72
2022-08-25T21:37:26.778Z,55.07
2022-08-25T21:39:54.364Z,53.27
2022-08-25T21:42:24.903Z,54.00
2022-08-25T21:44:52.862Z,53.51
2022-08-25T21:47:21.684Z,52.84
2022-08-25T21:49:51.050Z,52.78
2022-08-25T21:52:18.983Z,51.84
2022-08-25T21:54:51.136Z,51.06
2022-08-25T21:57:23.637Z,50.92
2022-08-25T21:59:51.787Z,50.62
2022-08-25T22:02:22.632Z,50.58
2022-08-25T22:04:54.199Z,50.51
2022-08-25T22:07:24.471Z,50.50
2022-08-25T22:09:52.482Z,50.63
2022-08-25T22:12:20.024Z,50.68
2022-08-25T22:14:47.207Z,51.05
2022-08-25T22:17:17.052Z,51.31
2022-08-25T22:19:48.427Z,52.07
2022-08-25T22:22:22.482Z,52.63
2022-08-25T22:24:51.106Z,52.57
2022-08-25T22:27:23.446Z,53.67
2022-08-25T22:29:52.245Z,53.81
2022-08-25T22:32:20.164Z,54.21
2022-08-25T22:34:48.330Z,54.70
2022-08-25T22:37:18.030Z,53.93
2022-08-25T22:39:46.388Z,53.70
2022-08-25T22:42:14.262Z,54.04
2022-08-25T22:44:44.676Z,54.24
2022-08-25T22:47:13.216Z,55.46
2022-08-25T22:49:40.712Z,55.96
2022-08-25T22:52:09.419Z,56.12
2022-08-25T22:54:41.308Z,56.87
2022-08-25T22:57:08.561Z,57.58
2022-08-25T22:59:35.711Z,58.66
2022-08-25T23:02:03.197Z,58.66
2022-08-25T23:04:30.616Z,57.80
2022-08-25T23:06:57.817Z,58.55
2022-08-25T23:09:25.371Z,57.82
2022-08-25T23:11:52.641Z,58.45
2022-08-25T23:14:20.854Z,58.89
2022-08-25T23:16:50.255Z,58.85
2022-08-25T23:19:18.280Z,59.46
2022-08-25T23:22:03.970Z,59.90
2022-08-25T23:24:32.020Z,59.02
2022-08-25T23:27:00.922Z,57.88
2022-08-25T23:29:29.502Z,57.40
2022-08-25T23:31:58.507Z,57.34
2022-08-25T23:34:26.776Z,57.67
2022-08-25T23:36:57.185Z,58.73
2022-08-25T23:39:24.746Z,59.00
2022-08-25T23:41:52.765Z,59.20
2022-08-25T23:44:22.386Z,59.30
2022-08-25T23:46:52.932Z,59.59
2022-08-25T23:49:24.469Z,60.54
2022-08-25T23:51:53.020Z,61.15
2022-08-25T23:54:21.877Z,61.92
2022-08-25T23:57:00.146Z,63.04
2022-08-25T23:59:30.134Z,63.36
